sensor_id;sensor_type;location;lat;lon;timestamp;temperature;humidity
75819;DHT22;64453;51.944;9.796;2023-04-06T00:00:11;7.20;41.20
75819;DHT22;64453;51.944;9.796;2023-04-06T00:02:39;7.20;41.30
75819;DHT22;64453;51.944;9.796;2023-04-06T00:05:07;7.00;41.40
75819;DHT22;64453;51.944;9.796;2023-04-06T00:07:34;7.30;41.50
75819;DHT22;64453;51.944;9.796;2023-04-06T00:10:01;7.30;41.00
75819;DHT22;64453;51.944;9.796;2023-04-06T00:12:28;7.50;40.70
75819;DHT22;64453;51.944;9.796;2023-04-06T00:14:56;7.50;41.50
75819;DHT22;64453;51.944;9.796;2023-04-06T00:17:23;7.30;41.30
75819;DHT22;64453;51.944;9.796;2023-04-06T00:19:50;6.90;40.90
75819;DHT22;64453;51.944;9.796;2023-04-06T00:22:17;7.00;41.30
75819;DHT22;64453;51.944;9.796;2023-04-06T00:24:44;7.30;41.30
75819;DHT22;64453;51.944;9.796;2023-04-06T00:27:11;7.40;40.50
75819;DHT22;64453;51.944;9.796;2023-04-06T00:29:37;7.10;40.60
75819;DHT22;64453;51.944;9.796;2023-04-06T00:32:07;7.10;41.40
75819;DHT22;64453;51.944;9.796;2023-04-06T00:34:34;6.70;41.90
75819;DHT22;64453;51.944;9.796;2023-04-06T00:37:00;6.90;41.80
75819;DHT22;64453;51.944;9.796;2023-04-06T00:39:27;7.30;40.70
75819;DHT22;64453;51.944;9.796;2023-04-06T00:41:54;7.40;40.30
75819;DHT22;64453;51.944;9.796;2023-04-06T00:44:22;7.20;40.70
75819;DHT22;64453;51.944;9.796;2023-04-06T00:46:50;7.20;41.20
75819;DHT22;64453;51.944;9.796;2023-04-06T00:49:19;6.80;41.00
75819;DHT22;64453;51.944;9.796;2023-04-06T00:51:46;6.70;41.30
75819;DHT22;64453;51.944;9.796;2023-04-06T00:54:12;7.10;40.90
75819;DHT22;64453;51.944;9.796;2023-04-06T00:56:41;7.40;40.00
75819;DHT22;64453;51.944;9.796;2023-04-06T00:59:08;7.20;39.20
75819;DHT22;64453;51.944;9.796;2023-04-06T01:01:35;7.40;39.10
75819;DHT22;64453;51.944;9.796;2023-04-06T01:04:02;7.60;39.80
75819;DHT22;64453;51.944;9.796;2023-04-06T01:06:30;7.40;39.60
75819;DHT22;64453;51.944;9.796;2023-04-06T01:08:57;7.50;40.50
75819;DHT22;64453;51.944;9.796;2023-04-06T01:11:24;7.30;39.80
75819;DHT22;64453;51.944;9.796;2023-04-06T01:13:52;7.40;39.70
75819;DHT22;64453;51.944;9.796;2023-04-06T01:16:19;7.50;39.50
75819;DHT22;64453;51.944;9.796;2023-04-06T01:18:46;7.10;39.80
75819;DHT22;64453;51.944;9.796;2023-04-06T01:21:12;6.90;39.50
75819;DHT22;64453;51.944;9.796;2023-04-06T01:23:44;6.80;39.60
75819;DHT22;64453;51.944;9.796;2023-04-06T01:26:11;6.80;40.00
75819;DHT22;64453;51.944;9.796;2023-04-06T01:28:38;6.70;41.10
75819;DHT22;64453;51.944;9.796;2023-04-06T01:31:06;6.10;41.30
75819;DHT22;64453;51.944;9.796;2023-04-06T01:33:34;6.50;41.50
75819;DHT22;64453;51.944;9.796;2023-04-06T01:36:01;6.50;41.50
75819;DHT22;64453;51.944;9.796;2023-04-06T01:38:28;6.10;41.70
75819;DHT22;64453;51.944;9.796;2023-04-06T01:40:56;5.60;42.30
75819;DHT22;64453;51.944;9.796;2023-04-06T01:43:23;6.00;41.90
75819;DHT22;64453;51.944;9.796;2023-04-06T01:45:50;5.90;41.50
75819;DHT22;64453;51.944;9.796;2023-04-06T01:48:18;6.00;41.40
75819;DHT22;64453;51.944;9.796;2023-04-06T01:50:45;6.10;41.40
75819;DHT22;64453;51.944;9.796;2023-04-06T01:53:12;6.50;40.70
75819;DHT22;64453;51.944;9.796;2023-04-06T01:55:39;6.70;40.60
75819;DHT22;64453;51.944;9.796;2023-04-06T01:58:07;6.80;40.50
75819;DHT22;64453;51.944;9.796;2023-04-06T02:00:34;6.60;40.30
75819;DHT22;64453;51.944;9.796;2023-04-06T02:03:01;6.50;41.00
75819;DHT22;64453;51.944;9.796;2023-04-06T02:05:30;6.60;40.70
75819;DHT22;64453;51.944;9.796;2023-04-06T02:07:58;6.70;40.60
75819;DHT22;64453;51.944;9.796;2023-04-06T02:10:25;6.20;40.50
75819;DHT22;64453;51.944;9.796;2023-04-06T02:12:53;6.80;40.50
75819;DHT22;64453;51.944;9.796;2023-04-06T02:15:21;6.50;40.80
75819;DHT22;64453;51.944;9.796;2023-04-06T02:17:48;6.20;40.70
75819;DHT22;64453;51.944;9.796;2023-04-06T02:20:15;6.70;40.60
75819;DHT22;64453;51.944;9.796;2023-04-06T02:22:42;6.30;40.80
75819;DHT22;64453;51.944;9.796;2023-04-06T02:25:09;6.30;41.40
75819;DHT22;64453;51.944;9.796;2023-04-06T02:27:35;6.30;41.00
75819;DHT22;64453;51.944;9.796;2023-04-06T02:30:03;6.20;40.50
75819;DHT22;64453;51.944;9.796;2023-04-06T02:32:31;6.00;40.80
75819;DHT22;64453;51.944;9.796;2023-04-06T02:34:58;6.00;40.60
75819;DHT22;64453;51.944;9.796;2023-04-06T02:37:25;5.90;40.50
75819;DHT22;64453;51.944;9.796;2023-04-06T02:39:52;6.20;40.60
75819;DHT22;64453;51.944;9.796;2023-04-06T02:42:21;6.50;40.50
75819;DHT22;64453;51.944;9.796;2023-04-06T02:44:48;5.80;40.30
75819;DHT22;64453;51.944;9.796;2023-04-06T02:47:15;5.80;41.40
75819;DHT22;64453;51.944;9.796;2023-04-06T02:49:43;6.00;41.20
75819;DHT22;64453;51.944;9.796;2023-04-06T02:52:10;6.00;40.90
75819;DHT22;64453;51.944;9.796;2023-04-06T02:54:37;6.10;41.00
75819;DHT22;64453;51.944;9.796;2023-04-06T02:57:03;5.90;40.30
75819;DHT22;64453;51.944;9.796;2023-04-06T02:59:31;5.90;40.80
75819;DHT22;64453;51.944;9.796;2023-04-06T03:01:57;6.00;40.80
75819;DHT22;64453;51.944;9.796;2023-04-06T03:04:24;6.10;41.00
75819;DHT22;64453;51.944;9.796;2023-04-06T03:06:54;6.10;41.10
75819;DHT22;64453;51.944;9.796;2023-04-06T03:09:21;6.10;40.90
75819;DHT22;64453;51.944;9.796;2023-04-06T03:11:48;6.00;41.40
75819;DHT22;64453;51.944;9.796;2023-04-06T03:14:14;5.80;41.00
75819;DHT22;64453;51.944;9.796;2023-04-06T03:16:42;5.60;41.00
75819;DHT22;64453;51.944;9.796;2023-04-06T03:19:10;5.50;41.80
75819;DHT22;64453;51.944;9.796;2023-04-06T03:21:36;5.40;41.00
75819;DHT22;64453;51.944;9.796;2023-04-06T03:24:06;5.70;40.70
75819;DHT22;64453;51.944;9.796;2023-04-06T03:26:33;5.90;40.50
75819;DHT22;64453;51.944;9.796;2023-04-06T03:29:00;6.00;40.90
75819;DHT22;64453;51.944;9.796;2023-04-06T03:31:27;5.90;41.20
75819;DHT22;64453;51.944;9.796;2023-04-06T03:33:54;5.90;41.20
75819;DHT22;64453;51.944;9.796;2023-04-06T03:36:21;5.50;41.10
75819;DHT22;64453;51.944;9.796;2023-04-06T03:38:47;5.40;41.30
75819;DHT22;64453;51.944;9.796;2023-04-06T03:41:16;5.30;41.50
75819;DHT22;64453;51.944;9.796;2023-04-06T03:43:42;5.50;41.50
75819;DHT22;64453;51.944;9.796;2023-04-06T03:46:10;5.40;41.40
75819;DHT22;64453;51.944;9.796;2023-04-06T03:48:37;5.70;41.10
75819;DHT22;64453;51.944;9.796;2023-04-06T03:51:04;5.60;41.60
75819;DHT22;64453;51.944;9.796;2023-04-06T03:53:30;5.60;40.90
75819;DHT22;64453;51.944;9.796;2023-04-06T03:55:57;5.50;40.50
75819;DHT22;64453;51.944;9.796;2023-04-06T03:58:25;5.60;39.90
75819;DHT22;64453;51.944;9.796;2023-04-06T04:00:52;5.90;40.50
75819;DHT22;64453;51.944;9.796;2023-04-06T04:03:19;5.70;40.70
75819;DHT22;64453;51.944;9.796;2023-04-06T04:05:46;5.70;41.00
75819;DHT22;64453;51.944;9.796;2023-04-06T04:08:14;5.80;40.90
75819;DHT22;64453;51.944;9.796;2023-04-06T04:10:41;5.80;41.00
75819;DHT22;64453;51.944;9.796;2023-04-06T04:13:08;5.30;41.20
75819;DHT22;64453;51.944;9.796;2023-04-06T04:15:36;5.30;41.60
75819;DHT22;64453;51.944;9.796;2023-04-06T04:18:03;4.90;40.80
75819;DHT22;64453;51.944;9.796;2023-04-06T04:20:29;5.60;41.10
75819;DHT22;64453;51.944;9.796;2023-04-06T04:22:56;5.50;41.20
75819;DHT22;64453;51.944;9.796;2023-04-06T04:25:23;5.30;40.90
75819;DHT22;64453;51.944;9.796;2023-04-06T04:27:50;5.30;41.00
75819;DHT22;64453;51.944;9.796;2023-04-06T04:30:17;5.40;41.50
75819;DHT22;64453;51.944;9.796;2023-04-06T04:32:45;5.40;41.30
75819;DHT22;64453;51.944;9.796;2023-04-06T04:35:12;5.30;41.20
75819;DHT22;64453;51.944;9.796;2023-04-06T04:37:40;5.10;40.80
75819;DHT22;64453;51.944;9.796;2023-04-06T04:40:08;5.30;41.50
75819;DHT22;64453;51.944;9.796;2023-04-06T04:42:35;5.50;40.70
75819;DHT22;64453;51.944;9.796;2023-04-06T04:45:03;5.80;40.50
75819;DHT22;64453;51.944;9.796;2023-04-06T04:47:30;5.90;40.10
75819;DHT22;64453;51.944;9.796;2023-04-06T04:49:58;5.70;40.40
75819;DHT22;64453;51.944;9.796;2023-04-06T04:52:25;5.40;41.30
75819;DHT22;64453;51.944;9.796;2023-04-06T04:54:51;5.40;40.90
75819;DHT22;64453;51.944;9.796;2023-04-06T04:57:18;5.20;40.40
75819;DHT22;64453;51.944;9.796;2023-04-06T04:59:45;5.50;40.10
75819;DHT22;64453;51.944;9.796;2023-04-06T05:02:13;5.30;41.10
75819;DHT22;64453;51.944;9.796;2023-04-06T05:04:40;4.90;41.40
75819;DHT22;64453;51.944;9.796;2023-04-06T05:07:09;4.80;41.30
75819;DHT22;64453;51.944;9.796;2023-04-06T05:09:35;4.80;41.40
75819;DHT22;64453;51.944;9.796;2023-04-06T05:12:02;5.20;41.80
75819;DHT22;64453;51.944;9.796;2023-04-06T05:14:29;5.30;41.40
75819;DHT22;64453;51.944;9.796;2023-04-06T05:16:56;5.30;41.20
75819;DHT22;64453;51.944;9.796;2023-04-06T05:19:23;5.20;41.60
75819;DHT22;64453;51.944;9.796;2023-04-06T05:21:50;5.30;41.00
75819;DHT22;64453;51.944;9.796;2023-04-06T05:24:18;5.40;41.40
75819;DHT22;64453;51.944;9.796;2023-04-06T05:26:45;5.60;40.90
75819;DHT22;64453;51.944;9.796;2023-04-06T05:29:12;5.40;41.40
75819;DHT22;64453;51.944;9.796;2023-04-06T05:31:39;5.50;40.80
75819;DHT22;64453;51.944;9.796;2023-04-06T05:34:05;5.30;41.70
75819;DHT22;64453;51.944;9.796;2023-04-06T05:36:34;5.40;41.90
75819;DHT22;64453;51.944;9.796;2023-04-06T05:39:01;5.30;41.70
75819;DHT22;64453;51.944;9.796;2023-04-06T05:41:29;5.50;42.00
75819;DHT22;64453;51.944;9.796;2023-04-06T05:43:56;5.70;42.10
75819;DHT22;64453;51.944;9.796;2023-04-06T05:46:23;5.90;41.90
75819;DHT22;64453;51.944;9.796;2023-04-06T05:48:50;5.90;41.10
75819;DHT22;64453;51.944;9.796;2023-04-06T05:51:17;6.10;41.50
75819;DHT22;64453;51.944;9.796;2023-04-06T05:53:43;5.90;41.90
75819;DHT22;64453;51.944;9.796;2023-04-06T05:56:10;6.30;42.00
75819;DHT22;64453;51.944;9.796;2023-04-06T05:58:38;6.30;42.30
75819;DHT22;64453;51.944;9.796;2023-04-06T06:01:05;6.40;42.20
75819;DHT22;64453;51.944;9.796;2023-04-06T06:03:32;6.50;42.00
75819;DHT22;64453;51.944;9.796;2023-04-06T06:06:02;6.60;42.30
75819;DHT22;64453;51.944;9.796;2023-04-06T06:08:30;6.50;43.20
75819;DHT22;64453;51.944;9.796;2023-04-06T06:10:57;6.60;43.20
75819;DHT22;64453;51.944;9.796;2023-04-06T06:13:24;6.50;42.90
75819;DHT22;64453;51.944;9.796;2023-04-06T06:15:52;6.70;43.40
75819;DHT22;64453;51.944;9.796;2023-04-06T06:18:19;6.80;43.10
75819;DHT22;64453;51.944;9.796;2023-04-06T06:20:46;6.50;43.50
75819;DHT22;64453;51.944;9.796;2023-04-06T06:23:13;6.50;45.00
75819;DHT22;64453;51.944;9.796;2023-04-06T06:25:40;6.60;44.40
75819;DHT22;64453;51.944;9.796;2023-04-06T06:28:07;6.70;44.80
75819;DHT22;64453;51.944;9.796;2023-04-06T06:30:33;6.90;45.00
75819;DHT22;64453;51.944;9.796;2023-04-06T06:33:02;7.00;44.60
75819;DHT22;64453;51.944;9.796;2023-04-06T06:35:28;6.90;44.00
75819;DHT22;64453;51.944;9.796;2023-04-06T06:37:56;7.00;44.10
75819;DHT22;64453;51.944;9.796;2023-04-06T06:40:22;7.20;43.90
75819;DHT22;64453;51.944;9.796;2023-04-06T06:42:51;6.90;42.60
75819;DHT22;64453;51.944;9.796;2023-04-06T06:45:19;7.40;42.30
75819;DHT22;64453;51.944;9.796;2023-04-06T06:47:46;7.30;42.50
75819;DHT22;64453;51.944;9.796;2023-04-06T06:50:14;7.20;42.90
75819;DHT22;64453;51.944;9.796;2023-04-06T06:52:41;7.50;43.20
75819;DHT22;64453;51.944;9.796;2023-04-06T06:55:09;7.50;41.90
75819;DHT22;64453;51.944;9.796;2023-04-06T06:57:38;7.40;40.30
75819;DHT22;64453;51.944;9.796;2023-04-06T07:00:06;7.70;40.40
75819;DHT22;64453;51.944;9.796;2023-04-06T07:02:34;7.80;40.20
75819;DHT22;64453;51.944;9.796;2023-04-06T07:05:02;7.90;40.00
75819;DHT22;64453;51.944;9.796;2023-04-06T07:07:32;7.90;39.80
75819;DHT22;64453;51.944;9.796;2023-04-06T07:09:59;8.10;39.90
75819;DHT22;64453;51.944;9.796;2023-04-06T07:12:27;8.20;40.10
75819;DHT22;64453;51.944;9.796;2023-04-06T07:14:54;8.20;39.70
75819;DHT22;64453;51.944;9.796;2023-04-06T07:17:21;8.30;39.20
75819;DHT22;64453;51.944;9.796;2023-04-06T07:19:48;8.40;38.80
75819;DHT22;64453;51.944;9.796;2023-04-06T07:22:15;8.50;38.80
75819;DHT22;64453;51.944;9.796;2023-04-06T07:24:43;8.60;38.70
75819;DHT22;64453;51.944;9.796;2023-04-06T07:27:10;8.70;38.50
75819;DHT22;64453;51.944;9.796;2023-04-06T07:29:37;8.70;38.30
75819;DHT22;64453;51.944;9.796;2023-04-06T07:32:04;8.80;38.10
75819;DHT22;64453;51.944;9.796;2023-04-06T07:34:31;8.90;38.10
75819;DHT22;64453;51.944;9.796;2023-04-06T07:36:58;9.00;38.40
75819;DHT22;64453;51.944;9.796;2023-04-06T07:39:26;9.00;37.60
75819;DHT22;64453;51.944;9.796;2023-04-06T07:41:54;9.10;37.90
75819;DHT22;64453;51.944;9.796;2023-04-06T07:44:21;9.10;36.80
75819;DHT22;64453;51.944;9.796;2023-04-06T07:46:48;9.00;37.40
75819;DHT22;64453;51.944;9.796;2023-04-06T07:49:14;9.10;37.20
75819;DHT22;64453;51.944;9.796;2023-04-06T07:51:41;9.20;37.40
75819;DHT22;64453;51.944;9.796;2023-04-06T07:54:08;9.40;36.30
75819;DHT22;64453;51.944;9.796;2023-04-06T07:56:35;9.40;36.60
75819;DHT22;64453;51.944;9.796;2023-04-06T07:59:03;9.50;36.20
75819;DHT22;64453;51.944;9.796;2023-04-06T08:01:30;9.40;36.20
75819;DHT22;64453;51.944;9.796;2023-04-06T08:03:57;9.50;37.30
75819;DHT22;64453;51.944;9.796;2023-04-06T08:06:24;9.60;36.80
75819;DHT22;64453;51.944;9.796;2023-04-06T08:08:51;9.60;36.40
75819;DHT22;64453;51.944;9.796;2023-04-06T08:11:18;9.70;36.20
75819;DHT22;64453;51.944;9.796;2023-04-06T08:13:46;9.80;36.30
75819;DHT22;64453;51.944;9.796;2023-04-06T08:16:14;9.80;36.60
75819;DHT22;64453;51.944;9.796;2023-04-06T08:18:41;9.90;36.40
75819;DHT22;64453;51.944;9.796;2023-04-06T08:21:08;10.00;35.30
75819;DHT22;64453;51.944;9.796;2023-04-06T08:23:35;10.00;35.70
75819;DHT22;64453;51.944;9.796;2023-04-06T08:26:01;10.00;35.90
75819;DHT22;64453;51.944;9.796;2023-04-06T08:28:28;10.00;35.60
75819;DHT22;64453;51.944;9.796;2023-04-06T08:30:55;10.10;35.40
75819;DHT22;64453;51.944;9.796;2023-04-06T08:33:23;10.10;35.30
75819;DHT22;64453;51.944;9.796;2023-04-06T08:35:50;10.20;34.80
75819;DHT22;64453;51.944;9.796;2023-04-06T08:38:17;10.20;33.80
75819;DHT22;64453;51.944;9.796;2023-04-06T08:40:43;10.20;33.60
75819;DHT22;64453;51.944;9.796;2023-04-06T08:43:14;10.10;33.20
75819;DHT22;64453;51.944;9.796;2023-04-06T08:45:41;10.20;32.80
75819;DHT22;64453;51.944;9.796;2023-04-06T08:48:09;10.20;33.40
75819;DHT22;64453;51.944;9.796;2023-04-06T08:50:38;10.20;34.10
75819;DHT22;64453;51.944;9.796;2023-04-06T08:53:06;10.10;33.40
75819;DHT22;64453;51.944;9.796;2023-04-06T08:55:34;10.40;34.40
75819;DHT22;64453;51.944;9.796;2023-04-06T08:58:02;10.50;34.40
75819;DHT22;64453;51.944;9.796;2023-04-06T09:00:29;10.40;33.60
75819;DHT22;64453;51.944;9.796;2023-04-06T09:02:57;10.40;34.40
75819;DHT22;64453;51.944;9.796;2023-04-06T09:05:25;10.60;33.80
75819;DHT22;64453;51.944;9.796;2023-04-06T09:07:53;10.70;33.30
75819;DHT22;64453;51.944;9.796;2023-04-06T09:10:21;10.70;33.60
75819;DHT22;64453;51.944;9.796;2023-04-06T09:12:49;10.60;33.30
75819;DHT22;64453;51.944;9.796;2023-04-06T09:15:20;10.60;32.70
75819;DHT22;64453;51.944;9.796;2023-04-06T09:17:48;10.90;34.70
75819;DHT22;64453;51.944;9.796;2023-04-06T09:20:14;11.00;35.60
75819;DHT22;64453;51.944;9.796;2023-04-06T09:22:50;11.00;35.20
75819;DHT22;64453;51.944;9.796;2023-04-06T09:25:20;11.00;35.30
75819;DHT22;64453;51.944;9.796;2023-04-06T09:27:49;11.10;35.60
75819;DHT22;64453;51.944;9.796;2023-04-06T09:30:25;11.20;35.00
75819;DHT22;64453;51.944;9.796;2023-04-06T09:32:54;11.40;34.60
75819;DHT22;64453;51.944;9.796;2023-04-06T09:35:22;11.40;34.40
75819;DHT22;64453;51.944;9.796;2023-04-06T09:37:52;11.30;35.40
75819;DHT22;64453;51.944;9.796;2023-04-06T09:40:21;11.40;35.20
75819;DHT22;64453;51.944;9.796;2023-04-06T09:42:48;11.10;33.80
75819;DHT22;64453;51.944;9.796;2023-04-06T09:45:17;11.20;34.70
75819;DHT22;64453;51.944;9.796;2023-04-06T09:47:45;11.40;35.60
75819;DHT22;64453;51.944;9.796;2023-04-06T09:50:13;11.30;34.90
75819;DHT22;64453;51.944;9.796;2023-04-06T09:52:46;11.50;34.60
75819;DHT22;64453;51.944;9.796;2023-04-06T09:55:20;11.60;34.80
75819;DHT22;64453;51.944;9.796;2023-04-06T09:57:57;11.80;34.80
75819;DHT22;64453;51.944;9.796;2023-04-06T10:00:27;11.80;34.70
75819;DHT22;64453;51.944;9.796;2023-04-06T10:02:58;11.80;34.50
75819;DHT22;64453;51.944;9.796;2023-04-06T10:05:36;12.00;35.10
75819;DHT22;64453;51.944;9.796;2023-04-06T10:08:06;11.90;34.10
75819;DHT22;64453;51.944;9.796;2023-04-06T10:10:37;12.00;34.50
75819;DHT22;64453;51.944;9.796;2023-04-06T10:13:04;12.00;34.00
75819;DHT22;64453;51.944;9.796;2023-04-06T10:15:32;12.00;33.40
75819;DHT22;64453;51.944;9.796;2023-04-06T10:18:00;12.00;33.60
75819;DHT22;64453;51.944;9.796;2023-04-06T10:20:34;11.80;30.80
75819;DHT22;64453;51.944;9.796;2023-04-06T10:23:08;11.90;31.40
75819;DHT22;64453;51.944;9.796;2023-04-06T10:25:51;11.80;30.60
75819;DHT22;64453;51.944;9.796;2023-04-06T10:28:20;11.90;31.60
75819;DHT22;64453;51.944;9.796;2023-04-06T10:30:47;12.00;29.70
75819;DHT22;64453;51.944;9.796;2023-04-06T10:33:14;11.90;29.80
75819;DHT22;64453;51.944;9.796;2023-04-06T10:35:41;12.00;30.90
75819;DHT22;64453;51.944;9.796;2023-04-06T10:38:09;12.10;31.40
75819;DHT22;64453;51.944;9.796;2023-04-06T10:40:38;12.30;32.30
75819;DHT22;64453;51.944;9.796;2023-04-06T10:43:10;12.40;32.00
75819;DHT22;64453;51.944;9.796;2023-04-06T10:45:38;12.40;31.40
75819;DHT22;64453;51.944;9.796;2023-04-06T10:48:14;12.40;32.00
75819;DHT22;64453;51.944;9.796;2023-04-06T10:50:43;11.90;28.90
75819;DHT22;64453;51.944;9.796;2023-04-06T10:53:10;12.30;29.90
75819;DHT22;64453;51.944;9.796;2023-04-06T10:55:39;12.40;30.30
75819;DHT22;64453;51.944;9.796;2023-04-06T10:58:06;12.50;29.30
75819;DHT22;64453;51.944;9.796;2023-04-06T11:00:35;12.60;28.90
75819;DHT22;64453;51.944;9.796;2023-04-06T11:03:02;12.70;30.40
75819;DHT22;64453;51.944;9.796;2023-04-06T11:05:29;12.90;31.20
75819;DHT22;64453;51.944;9.796;2023-04-06T11:07:56;12.90;30.70
75819;DHT22;64453;51.944;9.796;2023-04-06T11:10:23;13.00;30.90
75819;DHT22;64453;51.944;9.796;2023-04-06T11:12:54;13.00;30.80
75819;DHT22;64453;51.944;9.796;2023-04-06T11:15:21;12.80;29.50
75819;DHT22;64453;51.944;9.796;2023-04-06T11:17:50;12.90;30.50
75819;DHT22;64453;51.944;9.796;2023-04-06T11:20:17;13.00;31.90
75819;DHT22;64453;51.944;9.796;2023-04-06T11:22:48;13.10;31.80
75819;DHT22;64453;51.944;9.796;2023-04-06T11:25:16;13.20;32.10
75819;DHT22;64453;51.944;9.796;2023-04-06T11:27:45;13.20;31.70
75819;DHT22;64453;51.944;9.796;2023-04-06T11:30:12;13.30;31.50
75819;DHT22;64453;51.944;9.796;2023-04-06T11:32:41;13.30;29.70
75819;DHT22;64453;51.944;9.796;2023-04-06T11:35:12;13.40;31.40
75819;DHT22;64453;51.944;9.796;2023-04-06T11:37:45;13.20;28.40
75819;DHT22;64453;51.944;9.796;2023-04-06T11:40:12;13.40;29.80
75819;DHT22;64453;51.944;9.796;2023-04-06T11:42:39;13.60;29.50
75819;DHT22;64453;51.944;9.796;2023-04-06T11:45:07;13.60;29.20
75819;DHT22;64453;51.944;9.796;2023-04-06T11:47:36;13.60;29.00
75819;DHT22;64453;51.944;9.796;2023-04-06T11:50:08;13.70;28.90
75819;DHT22;64453;51.944;9.796;2023-04-06T11:52:37;13.60;28.30
75819;DHT22;64453;51.944;9.796;2023-04-06T11:55:12;13.60;27.80
75819;DHT22;64453;51.944;9.796;2023-04-06T11:57:41;13.80;28.70
75819;DHT22;64453;51.944;9.796;2023-04-06T12:00:09;13.70;28.10
75819;DHT22;64453;51.944;9.796;2023-04-06T12:02:37;14.00;29.10
75819;DHT22;64453;51.944;9.796;2023-04-06T12:05:06;13.90;27.00
75819;DHT22;64453;51.944;9.796;2023-04-06T12:07:33;13.90;27.50
75819;DHT22;64453;51.944;9.796;2023-04-06T12:10:03;14.10;28.70
75819;DHT22;64453;51.944;9.796;2023-04-06T12:12:30;14.20;28.60
75819;DHT22;64453;51.944;9.796;2023-04-06T12:14:57;14.20;28.80
75819;DHT22;64453;51.944;9.796;2023-04-06T12:17:25;14.20;29.30
75819;DHT22;64453;51.944;9.796;2023-04-06T12:19:52;14.40;29.10
75819;DHT22;64453;51.944;9.796;2023-04-06T12:22:19;14.50;28.80
75819;DHT22;64453;51.944;9.796;2023-04-06T12:24:46;14.60;28.30
75819;DHT22;64453;51.944;9.796;2023-04-06T12:27:14;14.60;28.10
75819;DHT22;64453;51.944;9.796;2023-04-06T12:29:42;14.70;28.10
75819;DHT22;64453;51.944;9.796;2023-04-06T12:32:09;14.80;28.10
75819;DHT22;64453;51.944;9.796;2023-04-06T12:34:36;14.80;28.80
75819;DHT22;64453;51.944;9.796;2023-04-06T12:37:04;14.70;27.40
75819;DHT22;64453;51.944;9.796;2023-04-06T12:39:31;14.90;28.60
75819;DHT22;64453;51.944;9.796;2023-04-06T12:41:57;14.90;28.60
75819;DHT22;64453;51.944;9.796;2023-04-06T12:44:25;15.10;29.60
75819;DHT22;64453;51.944;9.796;2023-04-06T12:46:52;15.30;28.30
75819;DHT22;64453;51.944;9.796;2023-04-06T12:49:19;15.20;27.60
75819;DHT22;64453;51.944;9.796;2023-04-06T12:51:47;15.30;28.00
75819;DHT22;64453;51.944;9.796;2023-04-06T12:54:14;15.20;27.30
75819;DHT22;64453;51.944;9.796;2023-04-06T12:56:40;15.10;26.90
75819;DHT22;64453;51.944;9.796;2023-04-06T12:59:07;15.30;28.00
75819;DHT22;64453;51.944;9.796;2023-04-06T13:01:35;15.40;26.80
75819;DHT22;64453;51.944;9.796;2023-04-06T13:04:02;15.40;29.70
75819;DHT22;64453;51.944;9.796;2023-04-06T13:06:29;15.60;28.00
75819;DHT22;64453;51.944;9.796;2023-04-06T13:08:56;15.80;28.20
75819;DHT22;64453;51.944;9.796;2023-04-06T13:11:23;15.70;26.70
75819;DHT22;64453;51.944;9.796;2023-04-06T13:13:51;15.80;27.30
75819;DHT22;64453;51.944;9.796;2023-04-06T13:16:18;15.80;27.30
75819;DHT22;64453;51.944;9.796;2023-04-06T13:18:46;15.80;26.70
75819;DHT22;64453;51.944;9.796;2023-04-06T13:21:14;15.90;26.70
75819;DHT22;64453;51.944;9.796;2023-04-06T13:23:42;15.90;26.90
75819;DHT22;64453;51.944;9.796;2023-04-06T13:26:09;15.90;27.60
75819;DHT22;64453;51.944;9.796;2023-04-06T13:28:38;16.10;27.60
75819;DHT22;64453;51.944;9.796;2023-04-06T13:31:05;16.10;27.60
75819;DHT22;64453;51.944;9.796;2023-04-06T13:33:33;16.10;26.70
75819;DHT22;64453;51.944;9.796;2023-04-06T13:36:02;16.20;27.80
75819;DHT22;64453;51.944;9.796;2023-04-06T13:38:29;16.30;28.10
75819;DHT22;64453;51.944;9.796;2023-04-06T13:40:57;16.30;27.70
75819;DHT22;64453;51.944;9.796;2023-04-06T13:43:23;16.30;27.60
75819;DHT22;64453;51.944;9.796;2023-04-06T13:45:53;16.60;27.90
75819;DHT22;64453;51.944;9.796;2023-04-06T13:48:21;16.40;27.10
75819;DHT22;64453;51.944;9.796;2023-04-06T13:50:47;16.50;26.30
75819;DHT22;64453;51.944;9.796;2023-04-06T13:53:16;16.70;27.30
75819;DHT22;64453;51.944;9.796;2023-04-06T13:55:42;16.70;27.00
75819;DHT22;64453;51.944;9.796;2023-04-06T13:58:10;16.70;27.10
75819;DHT22;64453;51.944;9.796;2023-04-06T14:00:37;16.80;27.60
75819;DHT22;64453;51.944;9.796;2023-04-06T14:03:05;16.80;25.90
75819;DHT22;64453;51.944;9.796;2023-04-06T14:05:32;16.90;24.60
75819;DHT22;64453;51.944;9.796;2023-04-06T14:08:00;17.00;24.80
75819;DHT22;64453;51.944;9.796;2023-04-06T14:10:29;17.00;25.60
75819;DHT22;64453;51.944;9.796;2023-04-06T14:12:56;17.10;25.70
75819;DHT22;64453;51.944;9.796;2023-04-06T14:15:23;17.20;26.10
75819;DHT22;64453;51.944;9.796;2023-04-06T14:17:50;17.40;26.60
75819;DHT22;64453;51.944;9.796;2023-04-06T14:20:18;17.50;25.80
75819;DHT22;64453;51.944;9.796;2023-04-06T14:22:45;17.50;25.20
75819;DHT22;64453;51.944;9.796;2023-04-06T14:25:11;17.40;23.60
75819;DHT22;64453;51.944;9.796;2023-04-06T14:27:40;17.40;22.60
75819;DHT22;64453;51.944;9.796;2023-04-06T14:30:07;17.30;21.80
75819;DHT22;64453;51.944;9.796;2023-04-06T14:32:36;17.40;23.80
75819;DHT22;64453;51.944;9.796;2023-04-06T14:35:03;16.90;21.30
75819;DHT22;64453;51.944;9.796;2023-04-06T14:37:30;16.80;23.20
75819;DHT22;64453;51.944;9.796;2023-04-06T14:39:57;17.30;24.40
75819;DHT22;64453;51.944;9.796;2023-04-06T14:42:24;17.30;24.10
75819;DHT22;64453;51.944;9.796;2023-04-06T14:44:52;17.60;23.80
75819;DHT22;64453;51.944;9.796;2023-04-06T14:47:19;17.80;22.70
75819;DHT22;64453;51.944;9.796;2023-04-06T14:49:47;17.70;22.10
75819;DHT22;64453;51.944;9.796;2023-04-06T14:52:13;17.70;21.90
75819;DHT22;64453;51.944;9.796;2023-04-06T14:54:41;17.70;23.00
75819;DHT22;64453;51.944;9.796;2023-04-06T14:57:08;17.80;23.80
75819;DHT22;64453;51.944;9.796;2023-04-06T14:59:34;17.70;24.40
75819;DHT22;64453;51.944;9.796;2023-04-06T15:02:03;18.00;23.40
75819;DHT22;64453;51.944;9.796;2023-04-06T15:04:30;18.10;23.90
75819;DHT22;64453;51.944;9.796;2023-04-06T15:06:57;18.10;22.50
75819;DHT22;64453;51.944;9.796;2023-04-06T15:09:24;18.20;23.60
75819;DHT22;64453;51.944;9.796;2023-04-06T15:11:51;18.20;23.20
75819;DHT22;64453;51.944;9.796;2023-04-06T15:14:18;18.30;23.60
75819;DHT22;64453;51.944;9.796;2023-04-06T15:16:45;18.40;22.90
75819;DHT22;64453;51.944;9.796;2023-04-06T15:19:13;18.60;21.60
75819;DHT22;64453;51.944;9.796;2023-04-06T15:21:40;18.40;20.90
75819;DHT22;64453;51.944;9.796;2023-04-06T15:24:07;18.60;21.90
75819;DHT22;64453;51.944;9.796;2023-04-06T15:26:35;18.80;21.90
75819;DHT22;64453;51.944;9.796;2023-04-06T15:29:02;19.00;23.20
75819;DHT22;64453;51.944;9.796;2023-04-06T15:31:29;19.00;22.60
75819;DHT22;64453;51.944;9.796;2023-04-06T15:33:57;19.20;23.00
75819;DHT22;64453;51.944;9.796;2023-04-06T15:36:27;19.30;23.20
75819;DHT22;64453;51.944;9.796;2023-04-06T15:38:56;19.50;22.00
75819;DHT22;64453;51.944;9.796;2023-04-06T15:41:23;19.50;23.40